createdAt,value
2023-04-26T00:02:24.698Z,88.60
2023-04-26T00:04:56.079Z,89.05
2023-04-26T00:07:24.747Z,89.59
2023-04-26T00:09:53.353Z,89.40
2023-04-26T00:12:22.621Z,89.42
2023-04-26T00:14:50.715Z,89.42
2023-04-26T00:17:18.567Z,89.79
2023-04-26T00:19:46.971Z,89.90
2023-04-26T00:22:15.287Z,90.11
2023-04-26T00:24:43.372Z,90.08
2023-04-26T00:27:11.274Z,89.88
2023-04-26T00:29:40.553Z,90.33
2023-04-26T00:32:08.502Z,90.03
2023-04-26T00:34:36.792Z,89.72
2023-04-26T00:37:05.702Z,90.02
2023-04-26T00:39:33.508Z,90.79
2023-04-26T00:42:01.744Z,91.27
2023-04-26T00:44:29.648Z,91.87
2023-04-26T00:46:59.125Z,91.68
2023-04-26T00:49:27.148Z,92.42
2023-04-26T00:51:55.162Z,92.28
2023-04-26T00:54:23.626Z,92.50
2023-04-26T00:56:53.262Z,92.53
2023-04-26T00:59:21.606Z,92.34
2023-04-26T01:01:49.763Z,91.68
2023-04-26T01:04:19.461Z,93.03
2023-04-26T01:06:47.590Z,92.65
2023-04-26T01:09:16.446Z,93.51
2023-04-26T01:11:45.725Z,93.57
2023-04-26T01:14:15.241Z,92.94
2023-04-26T01:16:46.887Z,93.41
2023-04-26T01:19:16.528Z,93.63
2023-04-26T01:21:47.660Z,93.98
2023-04-26T01:24:17.137Z,94.38
2023-04-26T01:26:46.569Z,94.10
2023-04-26T01:29:17.066Z,93.81
2023-04-26T01:31:45.514Z,93.59
2023-04-26T01:34:13.561Z,93.74
2023-04-26T01:36:41.734Z,93.94
2023-04-26T01:39:09.567Z,94.36
2023-04-26T01:41:38.891Z,94.16
2023-04-26T01:44:06.922Z,94.73
2023-04-26T01:46:34.872Z,94.71
2023-04-26T01:49:02.842Z,94.37
2023-04-26T01:51:31.320Z,94.63
2023-04-26T01:53:59.979Z,94.55
2023-04-26T01:56:27.862Z,94.39
2023-04-26T01:58:57.394Z,93.75
2023-04-26T02:01:25.484Z,94.35
2023-04-26T02:03:53.438Z,94.34
2023-04-26T02:06:21.423Z,94.07
2023-04-26T02:08:49.610Z,94.29
2023-04-26T02:11:17.693Z,93.94
2023-04-26T02:13:45.583Z,93.84
2023-04-26T02:16:16.188Z,94.98
2023-04-26T02:18:44.370Z,95.10
2023-04-26T02:21:13.336Z,95.04
2023-04-26T02:23:41.198Z,95.50
2023-04-26T02:26:11.593Z,95.59
2023-04-26T02:28:39.888Z,95.38
2023-04-26T02:31:07.728Z,95.29
2023-04-26T02:33:37.013Z,95.38
2023-04-26T02:36:06.275Z,94.82
2023-04-26T02:38:36.385Z,95.18
2023-04-26T02:41:05.977Z,95.47
2023-04-26T02:43:34.745Z,96.06
2023-04-26T02:46:03.056Z,96.69
2023-04-26T02:48:32.296Z,96.57
2023-04-26T02:51:01.533Z,96.59
2023-04-26T02:53:29.623Z,96.09
2023-04-26T02:55:57.490Z,96.48
2023-04-26T02:58:25.394Z,96.58
2023-04-26T03:00:54.700Z,96.74
2023-04-26T03:03:23.100Z,96.67
2023-04-26T03:05:51.813Z,97.62
2023-04-26T03:08:21.019Z,97.48
2023-04-26T03:10:48.870Z,97.83
2023-04-26T03:13:16.889Z,97.62
2023-04-26T03:15:46.169Z,98.22
2023-04-26T03:18:14.152Z,98.26
2023-04-26T03:20:42.991Z,98.67
2023-04-26T03:23:11.067Z,98.30
2023-04-26T03:25:40.472Z,98.59
2023-04-26T03:28:08.421Z,98.58
2023-04-26T03:30:36.839Z,99.05
2023-04-26T03:33:05.915Z,99.46
2023-04-26T03:35:33.811Z,98.71
2023-04-26T03:38:01.746Z,99.55
2023-04-26T03:40:29.838Z,100.00
2023-04-26T03:42:59.208Z,100.00
2023-04-26T03:45:27.160Z,100.00
2023-04-26T03:47:55.219Z,100.00
2023-04-26T03:50:23.752Z,100.00
2023-04-26T03:52:52.310Z,100.00
2023-04-26T03:55:20.131Z,100.00
2023-04-26T03:57:48.190Z,100.00
2023-04-26T04:00:18.086Z,100.00
2023-04-26T04:02:46.190Z,100.00
2023-04-26T04:05:23.201Z,100.00
2023-04-26T04:07:52.210Z,100.00
2023-04-26T04:10:22.905Z,100.00
2023-04-26T04:12:51.200Z,100.00
2023-04-26T04:15:21.887Z,100.00
2023-04-26T04:17:50.572Z,100.00
2023-04-26T04:20:20.420Z,100.00
2023-04-26T04:22:48.700Z,100.00
2023-04-26T04:25:16.863Z,100.00
2023-04-26T04:27:45.246Z,100.00
2023-04-26T04:30:14.528Z,100.00
2023-04-26T04:32:46.745Z,100.00
2023-04-26T04:35:16.422Z,100.00
2023-04-26T04:37:45.539Z,100.00
2023-04-26T04:40:14.706Z,100.00
2023-04-26T04:42:46.649Z,100.00
2023-04-26T04:45:16.154Z,100.00
2023-04-26T04:47:46.136Z,100.00
2023-04-26T04:50:14.570Z,100.00
2023-04-26T04:52:44.629Z,100.00
2023-04-26T04:55:12.938Z,100.00
2023-04-26T04:57:43.100Z,100.00
2023-04-26T05:00:13.008Z,100.00
2023-04-26T05:03:05.236Z,99.96
2023-04-26T05:05:33.407Z,100.00
2023-04-26T05:08:01.274Z,99.89
2023-04-26T05:10:29.240Z,98.39
2023-04-26T05:12:57.480Z,98.60
2023-04-26T05:15:25.387Z,96.33
2023-04-26T05:17:55.614Z,95.37
2023-04-26T05:20:26.637Z,93.05
2023-04-26T05:22:54.906Z,92.68
2023-04-26T05:25:22.958Z,91.85
2023-04-26T05:27:56.533Z,91.20
2023-04-26T05:30:42.901Z,89.96
2023-04-26T05:33:26.335Z,86.99
2023-04-26T05:36:10.221Z,85.82
2023-04-26T05:38:38.114Z,84.18
2023-04-26T05:41:06.427Z,82.75
2023-04-26T05:43:34.335Z,83.66
2023-04-26T05:46:02.700Z,81.47
2023-04-26T05:48:31.002Z,80.13
2023-04-26T05:50:58.823Z,78.57
2023-04-26T05:53:28.120Z,77.85
2023-04-26T05:55:56.582Z,76.62
2023-04-26T05:58:24.576Z,76.95
2023-04-26T06:00:53.174Z,75.67
2023-04-26T06:03:21.680Z,74.81
2023-04-26T06:05:49.908Z,74.43
2023-04-26T06:08:17.801Z,73.33
2023-04-26T06:10:47.603Z,71.32
2023-04-26T06:13:15.644Z,70.29
2023-04-26T06:15:44.356Z,69.41
2023-04-26T06:18:12.329Z,68.74
2023-04-26T06:20:41.026Z,68.10
2023-04-26T06:23:09.208Z,65.70
2023-04-26T06:25:37.245Z,63.23
2023-04-26T06:28:06.887Z,62.97
2023-04-26T06:30:35.402Z,63.34
2023-04-26T06:33:04.210Z,61.02
2023-04-26T06:35:33.827Z,60.26
2023-04-26T06:38:03.281Z,59.11
2023-04-26T06:40:31.260Z,58.69
2023-04-26T06:42:59.413Z,58.34
2023-04-26T06:45:37.462Z,56.05
2023-04-26T06:48:06.682Z,56.98
2023-04-26T06:50:38.358Z,57.21
2023-04-26T06:53:06.208Z,58.62
2023-04-26T06:55:34.337Z,58.70
2023-04-26T06:58:02.524Z,57.52
2023-04-26T07:00:30.925Z,57.29
2023-04-26T07:03:00.196Z,54.99
2023-04-26T07:05:28.143Z,55.35
2023-04-26T07:07:56.057Z,54.62
2023-04-26T07:10:23.927Z,55.04
2023-04-26T07:12:51.723Z,55.28
2023-04-26T07:15:19.596Z,55.89
2023-04-26T10:10:52.563Z,44.84
2023-04-26T10:13:20.699Z,43.54
2023-04-26T10:15:49.546Z,44.24
2023-04-26T10:18:17.628Z,43.51
2023-04-26T10:20:49.436Z,41.36
2023-04-26T10:23:21.224Z,37.75
2023-04-26T10:25:49.712Z,37.13
2023-04-26T10:28:19.337Z,36.35
2023-04-26T10:30:57.570Z,33.96
2023-04-26T10:33:26.017Z,36.12
2023-04-26T10:36:06.210Z,34.61
2023-04-26T10:38:34.894Z,32.50
2023-04-26T10:41:32.224Z,31.84
2023-04-26T10:44:17.352Z,30.63
2023-04-26T10:46:51.585Z,33.45
2023-04-26T10:49:25.767Z,34.56
2023-04-26T10:52:13.214Z,31.05
2023-04-26T10:54:52.567Z,32.22
2023-04-26T10:57:21.527Z,32.27
2023-04-26T11:00:27.925Z,35.54
2023-04-26T11:03:00.162Z,36.95
2023-04-26T11:05:52.984Z,39.06
2023-04-26T11:08:22.097Z,39.00
2023-04-26T11:10:59.276Z,39.27
2023-04-26T11:13:27.247Z,39.25
2023-04-26T11:16:03.344Z,40.36
2023-04-26T11:18:31.764Z,39.14
2023-04-26T12:09:43.526Z,31.14
2023-04-26T12:12:12.513Z,29.67
2023-04-26T12:14:41.667Z,27.56
2023-04-26T12:17:10.468Z,30.32
2023-04-26T12:19:39.909Z,30.88
2023-04-26T12:22:08.880Z,32.22
2023-04-26T12:24:37.475Z,31.10
2023-04-26T12:27:08.118Z,30.81
2023-04-26T12:29:36.745Z,31.47
2023-04-26T12:32:05.004Z,32.46
2023-04-26T12:34:33.264Z,31.65
2023-04-26T12:37:01.132Z,29.99
2023-04-26T12:39:29.013Z,30.93
2023-04-26T12:41:56.981Z,31.80
2023-04-26T12:44:26.260Z,30.51
2023-04-26T12:46:54.113Z,32.78
2023-04-26T12:49:21.957Z,35.50
2023-04-26T12:51:49.830Z,32.43
2023-04-26T12:54:17.664Z,33.34
2023-04-26T12:56:46.044Z,31.53
2023-04-26T12:59:13.888Z,30.98
2023-04-26T13:01:43.263Z,33.04
2023-04-26T13:04:11.487Z,33.92
2023-04-26T13:06:39.846Z,34.92
2023-04-26T13:09:08.930Z,32.13
2023-04-26T13:11:36.785Z,32.58
2023-04-26T13:14:06.885Z,30.97
2023-04-26T13:16:35.136Z,30.55
2023-04-26T13:19:04.454Z,30.09
2023-04-26T13:21:32.606Z,29.73
2023-04-26T13:24:00.473Z,28.86
2023-04-26T13:26:28.330Z,28.81
2023-04-26T13:28:56.696Z,28.99
2023-04-26T13:31:24.955Z,31.31
2023-04-26T13:33:52.871Z,32.60
2023-04-26T13:36:22.240Z,34.07
2023-04-26T13:38:50.069Z,33.97
2023-04-26T13:41:18.043Z,34.91
2023-04-26T13:43:45.899Z,34.35
2023-04-26T13:46:14.117Z,33.62
2023-04-26T13:48:42.363Z,33.68
2023-04-26T13:51:11.454Z,35.39
2023-04-26T13:53:40.955Z,35.56
2023-04-26T13:56:09.573Z,35.60
2023-04-26T13:58:37.469Z,35.33
2023-04-26T14:01:05.709Z,34.34
2023-04-26T14:03:33.824Z,35.19
2023-04-26T14:06:03.058Z,33.89
2023-04-26T14:08:31.286Z,34.86
2023-04-26T14:11:00.559Z,34.12
2023-04-26T14:13:28.950Z,33.37
2023-04-26T14:15:56.820Z,32.39
2023-04-26T14:18:24.672Z,34.88
2023-04-26T14:20:52.653Z,35.64
2023-04-26T14:23:21.674Z,35.07
2023-04-26T14:25:52.769Z,36.01
2023-04-26T14:28:21.993Z,35.30
2023-04-26T14:30:49.816Z,35.72
2023-04-26T14:33:17.750Z,34.21
2023-04-26T14:35:46.199Z,35.62
2023-04-26T14:38:14.323Z,35.92
2023-04-26T14:40:42.387Z,34.33
2023-04-26T14:43:10.474Z,35.07
2023-04-26T14:45:44.644Z,35.51
2023-04-26T14:48:13.022Z,34.42
2023-04-26T14:50:40.899Z,34.18
2023-04-26T14:53:09.715Z,34.42
2023-04-26T14:55:37.657Z,35.21
2023-04-26T14:58:05.615Z,35.31
2023-04-26T15:00:33.419Z,34.77
2023-04-26T15:03:02.825Z,33.67
2023-04-26T15:05:30.763Z,33.54
2023-04-26T15:07:58.697Z,34.67
2023-04-26T15:10:26.797Z,35.55
2023-04-26T15:12:54.571Z,36.52
2023-04-26T15:15:22.708Z,35.38
2023-04-26T15:17:50.787Z,37.04
2023-04-26T15:20:20.087Z,34.80
2023-04-26T15:22:48.867Z,36.74
2023-04-26T15:25:17.307Z,37.66
2023-04-26T15:27:45.876Z,36.71
2023-04-26T15:30:14.263Z,38.52
2023-04-26T15:32:42.519Z,36.68
2023-04-26T15:35:13.835Z,36.14
2023-04-26T15:37:44.099Z,35.38
2023-04-26T15:40:12.987Z,36.21
2023-04-26T15:42:40.769Z,36.10
2023-04-26T15:45:09.628Z,36.37
2023-04-26T15:47:37.906Z,36.43
2023-04-26T15:50:07.811Z,37.42
2023-04-26T15:52:38.568Z,37.03
2023-04-26T15:55:09.699Z,35.09
2023-04-26T15:57:37.969Z,36.01
2023-04-26T16:00:08.654Z,37.14
2023-04-26T16:02:36.977Z,35.51
2023-04-26T16:05:07.110Z,35.87
2023-04-26T16:07:35.120Z,36.14
2023-04-26T16:10:03.182Z,36.86
2023-04-26T16:12:32.512Z,36.28
2023-04-26T16:15:00.345Z,36.23
2023-04-26T16:17:28.328Z,36.66
2023-04-26T16:19:56.398Z,37.10
2023-04-26T16:22:24.155Z,37.08
2023-04-26T16:24:52.003Z,38.25
2023-04-26T16:27:20.988Z,37.62
2023-04-26T16:29:50.243Z,37.71
2023-04-26T16:32:18.079Z,38.07
2023-04-26T16:34:45.894Z,38.48
2023-04-26T16:37:14.624Z,37.80
2023-04-26T16:39:42.636Z,39.53
2023-04-26T16:42:10.627Z,39.55
2023-04-26T16:44:38.468Z,39.48
2023-04-26T16:47:07.900Z,37.75
2023-04-26T16:49:35.925Z,39.36
2023-04-26T16:52:03.924Z,39.46
2023-04-26T16:54:31.892Z,37.43
2023-04-26T16:56:59.973Z,37.87
2023-04-26T16:59:28.516Z,38.20
2023-04-26T17:01:56.352Z,39.60
2023-04-26T17:04:26.310Z,39.93
2023-04-26T17:06:54.514Z,39.37
2023-04-26T17:09:22.385Z,38.65
2023-04-26T17:11:50.232Z,38.87
2023-04-26T17:14:17.998Z,38.64
2023-04-26T17:16:45.955Z,39.36
2023-04-26T17:19:13.861Z,38.39
2023-04-26T17:21:43.295Z,39.66
2023-04-26T17:24:11.459Z,39.44
2023-04-26T17:26:39.380Z,39.42
2023-04-26T17:29:07.353Z,39.11
2023-04-26T17:31:35.356Z,39.82
2023-04-26T17:34:04.910Z,39.96
2023-04-26T17:36:33.023Z,39.58
2023-04-26T17:39:02.192Z,40.26
2023-04-26T17:41:30.115Z,40.94
2023-04-26T17:43:58.017Z,41.96
2023-04-26T17:46:25.879Z,40.82
2023-04-26T17:48:53.870Z,41.20
2023-04-26T17:51:21.994Z,40.95
2023-04-26T17:53:49.960Z,40.42
2023-04-26T17:56:19.195Z,40.44
2023-04-26T17:58:47.084Z,40.90
2023-04-26T18:01:14.922Z,40.45
2023-04-26T18:03:43.210Z,41.25
2023-04-26T18:06:11.419Z,42.13
2023-04-26T18:08:39.259Z,43.96
2023-04-26T18:11:07.318Z,43.49
2023-04-26T18:13:36.590Z,42.34
2023-04-26T18:16:04.457Z,41.93
2023-04-26T18:18:32.428Z,40.89
2023-04-26T18:21:00.440Z,41.58
2023-04-26T18:23:28.295Z,42.03
2023-04-26T18:25:56.297Z,41.58
2023-04-26T18:28:24.085Z,41.79
2023-04-26T18:30:57.425Z,42.19
2023-04-26T18:33:25.578Z,42.87
2023-04-26T18:35:53.729Z,42.98
2023-04-26T18:38:21.981Z,42.80
2023-04-26T18:40:50.780Z,43.19
2023-04-26T18:43:19.130Z,44.38
2023-04-26T18:45:47.186Z,43.59
2023-04-26T18:48:16.793Z,44.44
2023-04-26T18:50:51.273Z,44.85
2023-04-26T18:53:19.613Z,46.44
2023-04-26T18:55:47.830Z,44.61
2023-04-26T18:58:16.649Z,44.60
2023-04-26T19:00:44.550Z,45.45
2023-04-26T19:03:12.697Z,44.69
2023-04-26T19:05:43.716Z,45.16
2023-04-26T19:08:11.673Z,46.42
2023-04-26T19:10:39.471Z,45.13
2023-04-26T19:13:07.630Z,47.45
2023-04-26T19:15:36.422Z,46.70
2023-04-26T19:18:04.327Z,47.34
2023-04-26T19:20:32.339Z,47.64
2023-04-26T19:23:01.554Z,47.88
2023-04-26T19:25:30.432Z,47.12
2023-04-26T19:27:58.260Z,47.47
2023-04-26T19:30:26.190Z,46.60
2023-04-26T19:32:54.081Z,46.20
2023-04-26T19:35:21.872Z,47.59
2023-04-26T19:37:49.674Z,47.63
2023-04-26T19:40:18.995Z,47.69
2023-04-26T19:42:46.943Z,48.07
2023-04-26T19:45:14.792Z,47.98
2023-04-26T19:47:43.555Z,48.66
2023-04-26T19:50:12.358Z,48.16
2023-04-26T19:52:40.576Z,48.16
2023-04-26T19:55:10.375Z,48.09
2023-04-26T19:57:39.756Z,48.55
2023-04-26T20:00:09.970Z,48.40
2023-04-26T20:02:38.182Z,50.07
2023-04-26T20:05:06.978Z,48.70
2023-04-26T20:07:34.851Z,48.55
2023-04-26T20:10:02.713Z,48.80
2023-04-26T20:12:30.765Z,48.45
2023-04-26T20:14:59.952Z,49.14
2023-04-26T20:17:27.834Z,50.64
2023-04-26T20:19:55.706Z,50.15
2023-04-26T20:22:23.658Z,51.02
2023-04-26T20:24:51.493Z,50.51
2023-04-26T20:27:19.348Z,51.37
2023-04-26T20:29:47.835Z,51.50
2023-04-26T20:32:17.698Z,50.46
2023-04-26T20:34:45.651Z,51.19
2023-04-26T20:37:13.771Z,50.53
2023-04-26T20:39:41.642Z,51.81
2023-04-26T20:42:09.653Z,51.18
2023-04-26T20:44:38.383Z,51.45
2023-04-26T20:47:06.333Z,52.08
2023-04-26T20:49:35.592Z,52.89
2023-04-26T20:52:03.496Z,51.65
2023-04-26T20:54:31.512Z,51.85
2023-04-26T20:56:59.644Z,51.94
2023-04-26T20:59:27.504Z,52.24
2023-04-26T21:01:55.350Z,52.61
2023-04-26T21:04:23.486Z,51.34
2023-04-26T21:06:53.195Z,51.99
2023-04-26T21:09:21.477Z,53.64
2023-04-26T21:11:49.375Z,52.44
2023-04-26T21:14:17.152Z,51.37
2023-04-26T21:16:45.047Z,51.36
2023-04-26T21:19:12.844Z,51.72
2023-04-26T21:21:40.686Z,51.50
2023-04-26T21:24:10.032Z,52.36
2023-04-26T21:26:37.963Z,54.13
2023-04-26T21:29:06.641Z,54.45
2023-04-26T21:31:34.501Z,53.21
2023-04-26T21:34:02.574Z,52.25
2023-04-26T21:36:30.870Z,53.28
2023-04-26T21:38:58.849Z,53.12
2023-04-26T21:41:28.326Z,55.18
2023-04-26T21:43:57.088Z,55.54
2023-04-26T21:46:24.952Z,53.48
2023-04-26T21:48:52.894Z,56.05
2023-04-26T21:51:20.958Z,54.60
2023-04-26T21:53:48.773Z,55.94
2023-04-26T21:56:16.545Z,56.34
2023-04-26T21:58:46.227Z,56.93
2023-04-26T22:01:15.769Z,58.40
2023-04-26T22:03:43.933Z,57.84
2023-04-26T22:06:12.599Z,57.39
2023-04-26T22:08:41.264Z,58.61
2023-04-26T22:11:09.120Z,59.27
2023-04-26T22:13:37.029Z,59.55
2023-04-26T22:16:07.118Z,59.85
2023-04-26T22:18:35.481Z,59.33
2023-04-26T22:21:03.321Z,59.76
2023-04-26T22:23:31.346Z,58.84
2023-04-26T22:26:00.514Z,59.65
2023-04-26T22:28:28.410Z,58.85
2023-04-26T22:30:56.327Z,60.43
2023-04-26T22:33:25.581Z,63.26
2023-04-26T22:35:57.535Z,58.70
2023-04-26T22:38:25.517Z,59.10
2023-04-26T22:40:53.461Z,61.41
2023-04-26T22:43:21.393Z,61.45
2023-04-26T22:45:49.272Z,60.63
2023-04-26T22:48:17.159Z,60.77
2023-04-26T22:50:49.318Z,59.79
2023-04-26T22:53:17.626Z,61.36
2023-04-26T22:55:45.411Z,62.48
2023-04-26T22:58:13.205Z,61.88
2023-04-26T23:00:41.113Z,62.54
2023-04-26T23:03:09.025Z,63.60
2023-04-26T23:05:37.722Z,62.25
2023-04-26T23:08:07.480Z,63.62
2023-04-26T23:10:35.354Z,64.65
2023-04-26T23:13:03.780Z,65.92
2023-04-26T23:15:32.943Z,65.00
2023-04-26T23:18:01.175Z,65.34
2023-04-26T23:20:29.063Z,65.56
2023-04-26T23:22:57.079Z,65.81
2023-04-26T23:25:26.642Z,66.26
2023-04-26T23:27:54.458Z,65.29
2023-04-26T23:30:22.401Z,65.16
2023-04-26T23:32:50.331Z,65.45
2023-04-26T23:35:18.412Z,66.18
2023-04-26T23:37:46.356Z,65.73
2023-04-26T23:40:14.675Z,66.31
2023-04-26T23:42:43.934Z,67.35
2023-04-26T23:45:12.745Z,67.60
2023-04-26T23:47:40.645Z,66.36
2023-04-26T23:50:08.859Z,67.08
2023-04-26T23:52:36.709Z,69.54
2023-04-26T23:55:04.784Z,68.24
2023-04-26T23:57:32.602Z,67.73
